createdAt,value
2023-04-22T00:01:15.687Z,13.77
2023-04-22T00:03:45.105Z,13.23
2023-04-22T00:06:13.864Z,9.67
2023-04-22T00:08:42.218Z,15.37
2023-04-22T00:11:10.361Z,13.17
2023-04-22T00:13:39.217Z,9.03
2023-04-22T00:16:08.195Z,11.00
2023-04-22T00:18:36.620Z,16.33
2023-04-22T00:21:07.950Z,14.03
2023-04-22T00:23:35.807Z,13.87
2023-04-22T00:26:04.174Z,13.17
2023-04-22T00:28:32.742Z,12.27
2023-04-22T00:31:03.820Z,16.50
2023-04-22T00:33:33.014Z,11.77
2023-04-22T00:36:00.916Z,16.20
2023-04-22T00:38:29.194Z,12.00
2023-04-22T00:40:59.343Z,13.33
2023-04-22T00:43:27.852Z,11.87
2023-04-22T00:45:57.855Z,14.93
2023-04-22T00:48:28.694Z,12.90
2023-04-22T00:50:57.288Z,8.43
2023-04-22T00:53:25.612Z,8.23
2023-04-22T00:55:54.296Z,10.93
2023-04-22T00:58:23.867Z,13.73
2023-04-22T01:00:52.895Z,11.33
2023-04-22T01:03:23.134Z,12.43
2023-04-22T01:05:52.361Z,16.10
2023-04-22T01:08:21.478Z,10.40
2023-04-22T01:10:49.979Z,9.40
2023-04-22T01:13:18.170Z,12.00
2023-04-22T01:15:46.771Z,13.27
2023-04-22T01:18:15.929Z,12.03
2023-04-22T01:20:44.413Z,14.03
2023-04-22T01:23:21.733Z,10.50
2023-04-22T01:25:50.437Z,9.93
2023-04-22T01:28:18.475Z,15.30
2023-04-22T01:30:46.990Z,9.90
2023-04-22T01:33:16.387Z,16.47
2023-04-22T01:35:44.908Z,15.57
2023-04-22T01:38:13.789Z,11.03
2023-04-22T01:40:42.284Z,9.77
2023-04-22T01:43:10.638Z,14.33
2023-04-22T01:45:39.156Z,15.23
2023-04-22T01:48:07.574Z,12.47
2023-04-22T01:50:35.865Z,11.83
2023-04-22T01:53:03.805Z,11.97
2023-04-22T01:55:36.375Z,10.90
2023-04-22T01:58:05.814Z,13.33
2023-04-22T02:00:34.386Z,12.43
2023-04-22T02:03:02.508Z,10.33
2023-04-22T02:05:31.073Z,12.13
2023-04-22T02:07:59.335Z,13.73
2023-04-22T02:10:27.460Z,10.13
2023-04-22T02:12:56.339Z,13.03
2023-04-22T02:15:27.518Z,13.53
2023-04-22T02:17:55.761Z,15.97
2023-04-22T02:20:26.007Z,12.80
2023-04-22T02:22:54.378Z,10.40
2023-04-22T02:25:22.214Z,12.90
2023-04-22T02:27:50.538Z,14.37
2023-04-22T02:30:18.882Z,12.63
2023-04-22T02:32:47.800Z,12.57
2023-04-22T02:35:16.320Z,14.57
2023-04-22T02:37:44.386Z,14.60
2023-04-22T02:40:12.838Z,13.20
2023-04-22T02:42:41.000Z,13.83
2023-04-22T02:45:09.485Z,13.83
2023-04-22T02:47:38.554Z,19.37
2023-04-22T02:50:08.165Z,16.47
2023-04-22T02:52:36.167Z,14.87
2023-04-22T02:55:07.205Z,13.67
2023-04-22T02:57:35.774Z,14.00
2023-04-22T03:00:05.181Z,14.63
2023-04-22T03:02:34.027Z,13.67
2023-04-22T03:05:02.438Z,14.73
2023-04-22T03:07:31.393Z,15.37
2023-04-22T03:09:59.788Z,14.73
2023-04-22T03:12:27.834Z,14.63
2023-04-22T03:14:58.602Z,16.37
2023-04-22T03:17:29.860Z,11.90
2023-04-22T03:19:59.409Z,14.27
2023-04-22T03:22:27.616Z,14.53
2023-04-22T03:24:56.506Z,12.60
2023-04-22T03:27:25.281Z,13.00
2023-04-22T03:29:53.765Z,14.43
2023-04-22T03:32:22.070Z,14.37
2023-04-22T03:34:50.218Z,10.67
2023-04-22T03:37:18.977Z,10.83
2023-04-22T03:39:50.194Z,15.33
2023-04-22T03:42:18.401Z,14.73
2023-04-22T03:44:46.439Z,13.53
2023-04-22T03:47:16.517Z,13.57
2023-04-22T03:49:47.981Z,14.33
2023-04-22T03:52:16.656Z,21.17
2023-04-22T03:54:45.067Z,12.93
2023-04-22T03:57:13.123Z,19.00
2023-04-22T03:59:41.517Z,17.30
2023-04-22T04:02:12.550Z,14.00
2023-04-22T04:04:40.861Z,14.90
2023-04-22T04:07:09.090Z,14.57
2023-04-22T04:09:37.863Z,16.40
2023-04-22T04:12:06.262Z,16.77
2023-04-22T04:14:34.383Z,14.73
2023-04-22T04:17:04.002Z,17.43
2023-04-22T04:19:32.395Z,12.57
2023-04-22T04:22:01.958Z,12.10
2023-04-22T04:24:30.781Z,13.97
2023-04-22T04:26:59.648Z,12.07
2023-04-22T04:29:28.347Z,14.47
2023-04-22T04:31:56.554Z,19.60
2023-04-22T04:34:26.291Z,14.23
2023-04-22T04:36:55.087Z,14.47
2023-04-22T04:39:23.800Z,13.20
2023-04-22T04:41:55.439Z,13.17
2023-04-22T04:44:23.983Z,14.73
2023-04-22T04:46:58.156Z,16.47
2023-04-22T04:49:26.838Z,14.50
2023-04-22T04:51:57.321Z,16.67
2023-04-22T04:54:25.805Z,13.83
2023-04-22T04:56:54.194Z,10.77
2023-04-22T04:59:22.655Z,19.73
2023-04-22T05:01:51.246Z,14.77
2023-04-22T05:04:19.740Z,14.57
2023-04-22T05:06:47.914Z,12.53
2023-04-22T05:09:16.083Z,17.07
2023-04-22T05:11:44.232Z,17.43
2023-04-22T05:14:12.271Z,17.07
2023-04-22T05:16:41.541Z,17.67
2023-04-22T05:19:10.656Z,19.60
2023-04-22T05:21:38.916Z,16.70
2023-04-22T05:24:07.462Z,16.60
2023-04-22T05:26:37.104Z,15.73
2023-04-22T05:29:05.293Z,12.17
2023-04-22T05:31:34.278Z,14.00
2023-04-22T05:34:02.459Z,12.17
2023-04-22T05:36:31.446Z,11.27
2023-04-22T05:39:02.374Z,10.90
2023-04-22T05:41:30.775Z,13.50
2023-04-22T05:43:58.913Z,14.43
2023-04-22T05:46:27.146Z,11.63
2023-04-22T05:48:56.488Z,15.33
2023-04-22T05:51:27.521Z,13.03
2023-04-22T05:53:56.544Z,10.20
2023-04-22T05:56:26.810Z,12.20
2023-04-22T05:58:55.001Z,11.27
2023-04-22T06:01:22.930Z,9.93
2023-04-22T06:03:51.981Z,9.83
2023-04-22T06:06:20.356Z,13.30
2023-04-22T06:08:48.815Z,10.83
2023-04-22T06:11:20.800Z,8.90
2023-04-22T06:13:49.224Z,8.80
2023-04-22T06:16:17.303Z,7.73
2023-04-22T06:18:45.395Z,13.13
2023-04-22T06:21:13.582Z,10.70
2023-04-22T06:23:43.106Z,8.23
2023-04-22T06:26:11.310Z,10.53
2023-04-22T06:28:39.934Z,12.67
2023-04-22T06:31:08.270Z,8.03
2023-04-22T06:33:39.141Z,9.97
2023-04-22T06:36:07.659Z,9.13
2023-04-22T06:38:35.901Z,11.43
2023-04-22T06:41:05.242Z,10.63
2023-04-22T06:43:33.532Z,7.63
2023-04-22T06:46:02.203Z,12.60
2023-04-22T06:48:30.608Z,14.07
2023-04-22T06:50:58.541Z,10.33
2023-04-22T06:53:26.863Z,12.53
2023-04-22T06:55:55.219Z,11.90
2023-04-22T06:58:23.331Z,9.73
2023-04-22T07:00:51.333Z,11.20
2023-04-22T07:03:19.572Z,11.17
2023-04-22T07:05:48.852Z,9.27
2023-04-22T07:08:20.063Z,8.13
2023-04-22T07:10:48.018Z,7.27
2023-04-22T07:13:16.379Z,8.83
2023-04-22T07:15:46.581Z,6.40
2023-04-22T07:18:15.246Z,7.60
2023-04-22T07:20:43.442Z,8.10
2023-04-22T07:23:11.502Z,7.10
2023-04-22T07:25:42.551Z,12.97
2023-04-22T07:28:10.823Z,6.83
2023-04-22T07:30:38.818Z,7.77
2023-04-22T07:33:09.691Z,8.83
2023-04-22T07:35:37.889Z,6.47
2023-04-22T07:38:07.277Z,5.70
2023-04-22T07:40:36.336Z,6.27
2023-04-22T07:43:06.104Z,8.00
2023-04-22T07:45:34.740Z,5.50
2023-04-22T07:48:04.841Z,8.30
2023-04-22T07:50:33.307Z,5.93
2023-04-22T07:53:01.441Z,7.33
2023-04-22T07:55:29.571Z,7.17
2023-04-22T07:57:58.140Z,11.50
2023-04-22T08:00:25.951Z,15.57
2023-04-22T08:02:55.387Z,12.23
2023-04-22T08:05:23.780Z,12.70
2023-04-22T08:07:52.037Z,10.20
2023-04-22T08:10:20.138Z,10.13
2023-04-22T08:12:50.356Z,10.73
2023-04-22T08:15:18.750Z,7.20
2023-04-22T08:17:47.314Z,8.13
2023-04-22T08:20:15.921Z,11.00
2023-04-22T08:22:46.001Z,7.00
2023-04-22T08:25:14.038Z,5.03
2023-04-22T08:27:42.317Z,9.67
2023-04-22T08:30:11.812Z,6.97
2023-04-22T08:32:40.218Z,4.50
2023-04-22T08:35:08.873Z,6.20
2023-04-22T08:37:37.214Z,6.33
2023-04-22T08:40:07.358Z,4.77
2023-04-22T08:42:36.649Z,5.23
2023-04-22T08:45:06.184Z,5.43
2023-04-22T08:47:38.765Z,7.50
2023-04-22T08:50:10.291Z,4.83
2023-04-22T08:52:38.448Z,4.90
2023-04-22T08:55:07.137Z,6.53
2023-04-22T08:57:40.687Z,5.20
2023-04-22T09:00:10.060Z,6.20
2023-04-22T09:02:39.125Z,7.27
2023-04-22T09:05:10.027Z,13.70
2023-04-22T09:07:41.433Z,11.17
2023-04-22T09:10:12.487Z,10.93
2023-04-22T09:12:41.836Z,8.40
2023-04-22T09:15:12.177Z,9.10
2023-04-22T09:17:41.890Z,7.53
2023-04-22T09:20:10.651Z,7.27
2023-04-22T09:22:49.285Z,7.27
2023-04-22T09:25:27.883Z,7.27
2023-04-22T09:27:57.706Z,4.83
2023-04-22T09:30:28.235Z,3.80
2023-04-22T09:33:01.833Z,4.17
2023-04-22T09:35:41.566Z,4.97
2023-04-22T09:38:11.530Z,10.37
2023-04-22T09:40:44.536Z,7.50
2023-04-22T09:43:18.731Z,4.23
2023-04-22T09:45:47.040Z,6.37
2023-04-22T09:48:19.147Z,4.63
2023-04-22T09:50:49.990Z,4.10
2023-04-22T09:53:22.029Z,3.57
2023-04-22T09:55:52.991Z,4.27
2023-04-22T09:58:28.165Z,3.07
2023-04-22T10:00:59.550Z,4.10
2023-04-22T10:03:27.695Z,3.43
2023-04-22T10:05:56.134Z,3.70
2023-04-22T10:08:24.953Z,2.90
2023-04-22T10:10:54.314Z,2.70
2023-04-22T10:13:23.077Z,4.03
2023-04-22T10:15:53.765Z,7.47
2023-04-22T10:18:30.344Z,2.60
2023-04-22T10:20:59.569Z,7.67
2023-04-22T10:23:32.965Z,4.07
2023-04-22T10:26:01.693Z,4.67
2023-04-22T10:28:31.268Z,5.60
2023-04-22T10:31:07.089Z,5.97
2023-04-22T10:33:41.493Z,3.77
2023-04-22T10:36:19.520Z,3.43
2023-04-22T10:38:56.331Z,2.87
2023-04-22T10:41:25.946Z,7.07
2023-04-22T10:43:59.029Z,7.07
2023-04-22T10:46:40.518Z,1.93
2023-04-22T10:49:13.579Z,3.37
2023-04-22T10:51:49.664Z,2.10
2023-04-22T10:54:32.208Z,6.10
2023-04-22T10:57:17.037Z,5.37
2023-04-22T10:59:58.122Z,3.43
2023-04-22T11:02:26.677Z,3.60
2023-04-22T11:05:25.961Z,6.67
2023-04-22T11:07:58.732Z,5.90
2023-04-22T11:10:36.146Z,3.90
2023-04-22T11:13:04.372Z,5.23
2023-04-22T11:15:33.481Z,4.87
2023-04-22T11:18:02.512Z,6.00
2023-04-22T11:20:31.642Z,8.13
2023-04-22T11:23:00.178Z,7.07
2023-04-22T11:25:30.962Z,6.37
2023-04-22T11:27:59.305Z,8.80
2023-04-22T11:30:31.916Z,5.50
2023-04-22T11:33:01.338Z,7.43
2023-04-22T11:35:35.446Z,4.53
2023-04-22T11:38:05.623Z,5.50
2023-04-22T11:40:46.555Z,9.73
2023-04-22T11:43:15.527Z,6.90
2023-04-22T11:45:44.099Z,5.70
2023-04-22T11:48:13.055Z,5.33
2023-04-22T11:50:44.793Z,3.53
2023-04-22T11:53:24.487Z,6.57
2023-04-22T11:55:53.225Z,5.53
2023-04-22T11:58:26.934Z,13.20
2023-04-22T12:00:56.753Z,8.73
2023-04-22T12:03:27.034Z,4.33
2023-04-22T12:05:56.772Z,4.70
2023-04-22T12:08:26.695Z,3.20
2023-04-22T12:10:58.737Z,6.77
2023-04-22T12:13:46.559Z,7.73
2023-04-22T12:16:21.605Z,2.50
2023-04-22T12:18:54.616Z,7.17
2023-04-22T12:21:30.071Z,3.97
2023-04-22T12:24:05.983Z,4.07
2023-04-22T12:26:34.816Z,5.43
2023-04-22T12:29:34.499Z,3.27
2023-04-22T12:32:04.447Z,5.20
2023-04-22T12:34:32.592Z,5.87
2023-04-22T12:37:00.848Z,4.97
2023-04-22T12:39:29.045Z,3.10
2023-04-22T12:41:58.280Z,6.27
2023-04-22T12:44:26.672Z,5.90
2023-04-22T12:46:55.072Z,3.33
2023-04-22T12:49:23.354Z,5.93
2023-04-22T12:51:51.882Z,4.40
2023-04-22T12:54:21.513Z,5.30
2023-04-22T12:56:49.704Z,4.70
2023-04-22T12:59:17.895Z,7.30
2023-04-22T13:01:46.063Z,6.53
2023-04-22T13:04:14.421Z,6.50
2023-04-22T13:06:44.253Z,3.73
2023-04-22T13:09:13.382Z,6.23
2023-04-22T13:11:41.680Z,8.30
2023-04-22T13:14:10.151Z,5.13
2023-04-22T13:16:38.308Z,5.00
2023-04-22T13:19:06.831Z,6.90
2023-04-22T13:21:35.131Z,8.77
2023-04-22T13:24:05.872Z,6.77
2023-04-22T13:26:38.242Z,6.77
2023-04-22T13:29:11.499Z,6.73
2023-04-22T13:31:44.041Z,7.20
2023-04-22T13:34:15.906Z,7.37
2023-04-22T13:36:44.644Z,5.83
2023-04-22T13:39:13.046Z,7.80
2023-04-22T13:41:43.781Z,4.13
2023-04-22T13:44:13.094Z,5.27
2023-04-22T13:46:41.973Z,9.70
2023-04-22T13:49:10.903Z,8.50
2023-04-22T13:51:40.001Z,5.20
2023-04-22T13:54:08.173Z,6.77
2023-04-22T13:56:39.767Z,9.37
2023-04-22T13:59:08.858Z,7.27
2023-04-22T14:01:38.144Z,6.20
2023-04-22T14:04:06.734Z,8.37
2023-04-22T14:06:36.026Z,12.33
2023-04-22T14:09:09.941Z,14.80
2023-04-22T14:11:38.353Z,6.57
2023-04-22T14:14:06.856Z,10.57
2023-04-22T14:16:43.348Z,6.67
2023-04-22T14:19:11.736Z,7.07
2023-04-22T14:21:40.222Z,6.23
2023-04-22T14:24:08.510Z,6.37
2023-04-22T14:26:36.711Z,5.73
2023-04-22T14:29:04.994Z,5.67
2023-04-22T14:31:41.374Z,12.30
2023-04-22T14:34:10.152Z,8.23
2023-04-22T14:36:38.670Z,6.13
2023-04-22T14:39:06.786Z,6.90
2023-04-22T14:41:35.395Z,6.40
2023-04-22T14:44:03.840Z,5.37
2023-04-22T14:46:32.208Z,6.23
2023-04-22T14:49:00.496Z,6.10
2023-04-22T14:51:29.440Z,5.37
2023-04-22T14:53:57.980Z,6.57
2023-04-22T14:56:26.153Z,4.80
2023-04-22T14:58:54.238Z,3.70
2023-04-22T15:01:23.238Z,6.73
2023-04-22T15:03:52.575Z,5.73
2023-04-22T15:06:23.639Z,7.27
2023-04-22T15:08:52.094Z,4.00
2023-04-22T15:11:20.397Z,8.03
2023-04-22T15:13:48.536Z,6.13
2023-04-22T15:16:16.863Z,6.67
2023-04-22T15:18:45.066Z,7.50
2023-04-22T15:21:14.207Z,7.70
2023-04-22T15:23:42.715Z,6.93
2023-04-22T15:26:11.290Z,7.50
2023-04-22T15:28:39.554Z,7.17
2023-04-22T15:31:07.973Z,6.50
2023-04-22T15:33:36.123Z,7.43
2023-04-22T15:36:07.286Z,16.20
2023-04-22T15:38:36.556Z,11.77
2023-04-22T15:41:05.594Z,7.70
2023-04-22T15:43:34.336Z,7.33
2023-04-22T15:46:02.606Z,7.63
2023-04-22T15:48:31.683Z,11.83
2023-04-22T15:51:00.189Z,12.87
2023-04-22T15:53:30.393Z,9.97
2023-04-22T15:55:58.862Z,17.03
2023-04-22T15:58:27.003Z,12.17
2023-04-22T16:01:04.413Z,10.47
2023-04-22T16:03:39.940Z,28.33
2023-04-22T16:06:08.082Z,20.60
2023-04-22T16:08:36.306Z,20.67
2023-04-22T16:11:05.761Z,15.83
2023-04-22T16:13:34.137Z,17.10
2023-04-22T16:16:07.362Z,12.10
2023-04-22T16:18:36.091Z,9.37
2023-04-22T16:21:05.247Z,12.70
2023-04-22T16:23:35.254Z,11.80
2023-04-22T16:26:10.173Z,21.13
2023-04-22T16:28:38.485Z,29.90
2023-04-22T16:31:07.217Z,28.73
2023-04-22T16:33:39.623Z,28.37
2023-04-22T16:36:09.611Z,34.63
2023-04-22T16:38:38.348Z,20.20
2023-04-22T16:41:06.953Z,23.40
2023-04-22T16:43:35.631Z,24.97
2023-04-22T16:46:04.297Z,30.50
2023-04-22T16:48:33.181Z,33.40
2023-04-22T16:51:04.128Z,36.10
2023-04-22T16:53:32.467Z,29.07
2023-04-22T16:56:01.264Z,31.17
2023-04-22T16:58:29.979Z,27.43
2023-04-22T17:01:00.890Z,32.27
2023-04-22T17:03:29.484Z,29.73
2023-04-22T17:05:57.899Z,28.70
2023-04-22T17:08:26.330Z,32.43
2023-04-22T17:10:54.378Z,28.57
2023-04-22T17:13:22.561Z,32.67
2023-04-22T17:15:51.742Z,27.93
2023-04-22T17:18:20.091Z,37.57
2023-04-22T17:20:49.709Z,27.47
2023-04-22T17:23:18.241Z,23.17
2023-04-22T17:25:49.004Z,21.20
2023-04-22T17:28:17.371Z,20.53
2023-04-22T17:30:50.092Z,20.03
2023-04-22T17:33:18.407Z,17.90
2023-04-22T17:35:46.500Z,17.43
2023-04-22T17:38:14.855Z,16.07
2023-04-22T17:40:44.071Z,18.20
2023-04-22T17:43:12.436Z,16.07
2023-04-22T17:45:45.496Z,20.40
2023-04-22T17:48:13.536Z,20.47
2023-04-22T17:50:43.784Z,16.47
2023-04-22T17:53:13.643Z,18.07
2023-04-22T17:55:48.128Z,24.33
2023-04-22T17:58:16.618Z,17.13
2023-04-22T18:00:45.910Z,17.30
2023-04-22T18:03:14.719Z,22.00
2023-04-22T18:05:47.211Z,20.27
2023-04-22T18:08:15.455Z,31.27
2023-04-22T18:10:43.787Z,27.60
2023-04-22T18:13:12.152Z,24.93
2023-04-22T18:15:40.521Z,23.50
2023-04-22T18:18:08.721Z,25.90
2023-04-22T18:20:37.245Z,20.20
2023-04-22T18:23:05.617Z,30.50
2023-04-22T18:25:35.921Z,27.10
2023-04-22T18:28:04.431Z,36.70
2023-04-22T18:30:32.870Z,27.87
2023-04-22T18:33:04.489Z,26.87
2023-04-22T18:35:34.008Z,30.23
2023-04-22T18:38:02.133Z,40.20
2023-04-22T18:40:30.554Z,36.33
2023-04-22T18:42:59.075Z,35.77
2023-04-22T18:45:27.084Z,39.53
2023-04-22T18:47:57.671Z,39.60
2023-04-22T18:50:25.949Z,52.80
2023-04-22T18:52:54.178Z,49.30
2023-04-22T18:55:22.152Z,48.87
2023-04-22T18:57:50.168Z,54.80
2023-04-22T19:00:23.987Z,45.93
2023-04-22T19:02:53.557Z,41.53
2023-04-22T19:05:50.459Z,57.77
2023-04-22T19:08:18.491Z,46.17
2023-04-22T19:10:48.165Z,45.47
2023-04-22T19:13:28.500Z,38.30
2023-04-22T19:15:58.831Z,42.07
2023-04-22T19:18:27.273Z,38.07
2023-04-22T19:20:57.506Z,41.43
2023-04-22T19:23:26.224Z,38.13
2023-04-22T19:25:54.542Z,36.03
2023-04-22T19:28:26.600Z,39.07
2023-04-22T19:30:55.826Z,45.43
2023-04-22T19:33:24.006Z,46.53
2023-04-22T19:35:52.094Z,46.50
2023-04-22T19:38:22.604Z,42.27
2023-04-22T19:40:51.365Z,45.43
2023-04-22T19:43:22.771Z,51.60
2023-04-22T19:45:51.231Z,40.93
2023-04-22T19:48:20.691Z,45.87
2023-04-22T19:50:49.550Z,49.60
2023-04-22T19:53:19.056Z,41.00
2023-04-22T19:55:47.613Z,39.17
2023-04-22T19:58:17.167Z,39.77
2023-04-22T20:00:48.542Z,37.57
2023-04-22T20:03:17.068Z,39.00
2023-04-22T20:05:45.625Z,48.57
2023-04-22T20:08:16.277Z,51.00
2023-04-22T20:10:46.317Z,41.40
2023-04-22T20:13:14.698Z,39.77
2023-04-22T20:15:43.233Z,41.90
2023-04-22T20:18:11.738Z,50.33
2023-04-22T20:20:48.484Z,49.63
2023-04-22T20:23:19.068Z,41.50
2023-04-22T20:25:50.321Z,46.03
2023-04-22T20:28:19.297Z,45.13
2023-04-22T20:30:48.248Z,48.37
2023-04-22T20:33:18.418Z,47.57
2023-04-22T20:35:49.961Z,40.70
2023-04-22T20:38:19.797Z,39.70
2023-04-22T20:40:48.389Z,38.23
2023-04-22T20:43:16.870Z,39.63
2023-04-22T20:45:44.861Z,42.27
2023-04-22T20:48:16.061Z,44.93
2023-04-22T20:50:47.707Z,32.60
2023-04-22T20:53:16.036Z,29.10
2023-04-22T20:55:44.560Z,30.33
2023-04-22T20:58:12.998Z,26.80
2023-04-22T21:00:41.900Z,30.83
2023-04-22T21:03:10.577Z,24.23
2023-04-22T21:05:43.913Z,23.50
2023-04-22T21:08:21.934Z,24.77
2023-04-22T21:10:51.186Z,21.90
2023-04-22T21:13:24.821Z,26.30
2023-04-22T21:15:59.944Z,24.57
2023-04-22T21:18:30.174Z,26.47
2023-04-22T21:21:03.442Z,26.47
2023-04-22T21:23:34.190Z,32.07
2023-04-22T21:26:04.465Z,28.20
2023-04-22T21:28:33.441Z,27.17
2023-04-22T21:31:02.031Z,24.70
2023-04-22T21:33:33.341Z,25.83
2023-04-22T21:36:01.620Z,23.60
2023-04-22T21:38:30.162Z,27.03
2023-04-22T21:40:58.336Z,25.97
2023-04-22T21:43:26.621Z,23.93
2023-04-22T21:45:55.492Z,24.53
2023-04-22T21:48:23.749Z,25.90
2023-04-22T21:50:52.208Z,24.77
2023-04-22T21:53:21.044Z,24.97
2023-04-22T21:55:49.065Z,26.50
2023-04-22T21:58:17.264Z,29.93
2023-04-22T22:00:45.654Z,26.13
2023-04-22T22:03:15.229Z,24.87
2023-04-22T22:05:44.013Z,26.83
2023-04-22T22:08:14.370Z,29.73
2023-04-22T22:10:43.635Z,31.97
2023-04-22T22:13:11.668Z,31.17
2023-04-22T22:15:40.113Z,27.63
2023-04-22T22:18:08.160Z,36.20
2023-04-22T22:20:37.161Z,38.27
2023-04-22T22:23:05.485Z,41.00
2023-04-22T22:25:33.753Z,39.87
2023-04-22T22:28:05.141Z,34.03
2023-04-22T22:30:33.215Z,26.63
2023-04-22T22:33:01.316Z,23.00
2023-04-22T22:35:29.813Z,22.87
2023-04-22T22:37:57.931Z,23.70
2023-04-22T22:40:26.045Z,27.60
2023-04-22T22:42:54.806Z,27.60
2023-04-22T22:45:25.403Z,27.83
2023-04-22T22:47:56.835Z,32.33
2023-04-22T22:50:25.318Z,27.43
2023-04-22T22:52:53.978Z,29.83
2023-04-22T22:55:22.069Z,27.47
2023-04-22T22:57:50.330Z,27.77
2023-04-22T23:00:18.949Z,32.73
2023-04-22T23:02:47.721Z,31.77
2023-04-22T23:05:15.678Z,27.63
2023-04-22T23:07:46.555Z,41.40
2023-04-22T23:10:14.782Z,51.70
2023-04-22T23:12:43.288Z,41.70
2023-04-22T23:15:12.107Z,42.13
2023-04-22T23:17:40.672Z,37.77
2023-04-22T23:20:12.566Z,34.60
2023-04-22T23:22:41.287Z,39.23
2023-04-22T23:25:10.430Z,31.73
2023-04-22T23:27:39.164Z,34.37
2023-04-22T23:30:08.170Z,32.47
2023-04-22T23:32:40.154Z,41.47
2023-04-22T23:35:09.408Z,29.03
2023-04-22T23:37:38.554Z,36.40
2023-04-22T23:40:07.651Z,38.63
2023-04-22T23:42:37.817Z,38.60
2023-04-22T23:45:06.316Z,31.43
2023-04-22T23:47:46.834Z,33.40
2023-04-22T23:50:16.541Z,32.17
2023-04-22T23:52:45.400Z,28.90
2023-04-22T23:55:17.394Z,32.93
2023-04-22T23:57:45.844Z,31.63
